Time;durP1;ratioP1;P1;durP2;ratioP2;P2;SDS_P1;SDS_P2;PMS_P1;PMS_P2;Temp;Humidity;BMP_temperature;BMP_pressure;BME280_temperature;BME280_humidity;BME280_pressure;Samples;Min_cycle;Max_cycle;Signal;HPM_P1;HPM_P2
2021/12/23 00:01:37;;;;;;;11.50;7.03;;;0.70;99.90;;;;;;4984849;28;20047;-81
2021/12/23 00:04:03;;;;;;;6.30;4.83;;;0.70;99.90;;;;;;4984251;28;20054;-82
2021/12/23 00:06:29;;;;;;;6.77;5.30;;;0.70;99.90;;;;;;4967683;28;20082;-81
2021/12/23 00:08:57;;;;;;;6.67;5.33;;;0.80;99.90;;;;;;4983113;28;20066;-81
2021/12/23 00:11:23;;;;;;;8.07;5.83;;;0.80;99.90;;;;;;4984987;28;20101;-82
2021/12/23 00:13:59;;;;;;;9.20;5.43;;;0.80;99.90;;;;;;4985248;28;20038;-81
2021/12/23 00:16:41;;;;;;;7.20;5.43;;;0.70;99.90;;;;;;4967525;28;20042;-82
2021/12/23 00:19:18;;;;;;;8.90;7.97;;;0.70;99.90;;;;;;4984251;28;20038;-81
2021/12/23 00:24:30;;;;;;;9.03;6.47;;;0.80;99.90;;;;;;4966334;28;20277;-81
2021/12/23 00:26:55;;;;;;;5.17;4.03;;;0.70;99.90;;;;;;4984526;28;20480;-81
2021/12/23 00:29:21;;;;;;;8.93;4.73;;;0.70;99.90;;;;;;4990976;28;20069;-82
2021/12/23 00:31:46;;;;;;;10.03;4.83;;;0.70;99.90;;;;;;5004186;28;20057;-82
2021/12/23 00:34:12;;;;;;;11.90;5.17;;;0.80;99.90;;;;;;5003545;28;20045;-81
2021/12/23 00:36:40;;;;;;;5.47;4.20;;;0.80;99.90;;;;;;5002805;28;20669;-81
2021/12/23 00:39:07;;;;;;;5.37;4.60;;;0.80;99.90;;;;;;5003721;28;20635;-81
2021/12/23 00:41:33;;;;;;;6.40;5.80;;;0.80;99.90;;;;;;5003548;28;20042;-82
2021/12/23 00:43:59;;;;;;;7.33;3.73;;;0.80;99.90;;;;;;5003349;28;20057;-81
2021/12/23 00:46:25;;;;;;;7.93;5.17;;;0.80;99.90;;;;;;5003398;28;20044;-82
2021/12/23 00:48:50;;;;;;;5.27;4.77;;;0.80;99.90;;;;;;5003681;28;20121;-78
2021/12/23 00:51:16;;;;;;;4.50;4.07;;;0.80;99.90;;;;;;5003988;28;20049;-81
2021/12/23 00:53:42;;;;;;;6.60;5.00;;;0.80;99.90;;;;;;4985077;28;20476;-81
2021/12/23 00:56:11;;;;;;;4.73;4.33;;;0.80;99.90;;;;;;5003476;28;20046;-81
2021/12/23 00:58:36;;;;;;;7.23;4.43;;;0.70;99.90;;;;;;5003097;28;20133;-80
2021/12/23 01:01:03;;;;;;;7.87;5.83;;;0.80;99.90;;;;;;4985701;28;20113;-81
2021/12/23 01:03:29;;;;;;;9.50;5.40;;;0.70;99.90;;;;;;4985964;28;20084;-81
2021/12/23 01:05:55;;;;;;;5.87;5.03;;;0.70;99.90;;;;;;5002865;28;20129;-81
2021/12/23 01:08:21;;;;;;;5.73;5.23;;;0.70;99.90;;;;;;5002492;28;20051;-77
2021/12/23 01:10:50;;;;;;;5.60;5.10;;;0.70;99.90;;;;;;5003427;28;20421;-81
2021/12/23 01:13:18;;;;;;;6.07;5.57;;;0.70;99.90;;;;;;4986196;28;20096;-81
2021/12/23 01:15:59;;;;;;;7.83;4.93;;;0.70;99.90;;;;;;5003278;28;20073;-81
2021/12/23 01:18:25;;;;;;;5.43;5.03;;;0.70;99.90;;;;;;4985943;28;20582;-81
2021/12/23 01:21:03;;;;;;;13.67;5.03;;;0.70;99.90;;;;;;5002683;28;20047;-81
2021/12/23 01:23:30;;;;;;;5.57;5.07;;;0.70;99.90;;;;;;5002235;28;20045;-80
2021/12/23 01:25:56;;;;;;;12.47;4.00;;;0.70;99.90;;;;;;4985036;28;20077;-81
2021/12/23 01:28:22;;;;;;;6.97;5.30;;;0.70;99.90;;;;;;5003097;28;20050;-82
2021/12/23 01:30:48;;;;;;;4.83;4.43;;;0.70;99.90;;;;;;4984869;28;20400;-81
2021/12/23 01:33:15;;;;;;;7.97;5.30;;;0.70;99.90;;;;;;4965462;28;20054;-81
2021/12/23 01:35:41;;;;;;;8.70;5.60;;;0.80;99.90;;;;;;4983246;28;20050;-81
2021/12/23 01:38:08;;;;;;;7.77;4.77;;;0.80;99.90;;;;;;4964670;28;20050;-81
2021/12/23 01:40:34;;;;;;;6.53;4.57;;;0.80;99.90;;;;;;4983133;28;20042;-81
2021/12/23 01:43:00;;;;;;;7.43;4.33;;;0.80;99.90;;;;;;4983006;28;20064;-81
2021/12/23 01:45:29;;;;;;;5.20;4.77;;;0.80;99.90;;;;;;4982948;28;20039;-82
2021/12/23 01:47:56;;;;;;;6.80;6.10;;;0.80;99.90;;;;;;4982992;28;20049;-81
2021/12/23 01:50:27;;;;;;;8.37;5.13;;;0.80;99.90;;;;;;4982884;28;20460;-81
2021/12/23 01:52:59;;;;;;;15.20;7.67;;;0.80;99.90;;;;;;4981719;28;20043;-82
2021/12/23 01:55:25;;;;;;;6.05;4.55;;;0.80;99.90;;;;;;4982695;28;20061;-81
2021/12/23 01:57:52;;;;;;;7.47;4.37;;;0.80;99.90;;;;;;4982719;28;20039;-81
2021/12/23 02:00:21;;;;;;;5.67;5.10;;;0.80;99.90;;;;;;4983366;28;20045;-81
2021/12/23 02:02:46;;;;;;;4.80;4.40;;;0.90;99.90;;;;;;4983183;28;20053;-81
2021/12/23 02:05:12;;;;;;;5.07;4.67;;;0.90;99.90;;;;;;4982474;28;20050;-81
2021/12/23 02:07:38;;;;;;;4.50;3.93;;;0.90;99.90;;;;;;4964295;28;20046;-81
2021/12/23 02:10:06;;;;;;;7.60;6.53;;;0.90;99.90;;;;;;4982267;28;20137;-81
2021/12/23 02:12:33;;;;;;;4.53;4.13;;;0.80;99.90;;;;;;4964853;28;20054;-81
2021/12/23 02:14:58;;;;;;;8.60;6.37;;;0.80;99.90;;;;;;4982458;28;20042;-81
2021/12/23 02:17:24;;;;;;;7.53;4.07;;;0.80;99.90;;;;;;4982751;28;20046;-81
2021/12/23 02:19:53;;;;;;;6.90;5.33;;;0.80;99.90;;;;;;4982695;28;20061;-81
2021/12/23 02:22:19;;;;;;;13.00;4.77;;;0.80;99.90;;;;;;4982129;28;20070;-81
2021/12/23 02:24:44;;;;;;;10.50;5.23;;;0.80;99.90;;;;;;4964907;28;20519;-81
2021/12/23 02:27:11;;;;;;;4.33;4.00;;;0.80;99.90;;;;;;4982160;28;21014;-81
2021/12/23 02:29:37;;;;;;;7.90;7.17;;;0.90;99.90;;;;;;4991588;28;20052;-81
2021/12/23 02:32:03;;;;;;;5.70;5.13;;;0.80;99.90;;;;;;5001557;28;20038;-81
2021/12/23 02:34:28;;;;;;;6.77;5.07;;;0.80;99.90;;;;;;5001829;28;20129;-81
2021/12/23 02:36:57;;;;;;;4.87;4.43;;;0.80;99.90;;;;;;5000616;28;20181;-82
2021/12/23 02:39:25;;;;;;;7.47;4.70;;;0.80;99.90;;;;;;4984303;28;20046;-81
2021/12/23 02:41:50;;;;;;;11.07;5.37;;;0.80;99.90;;;;;;4983881;28;20045;-77
2021/12/23 02:44:16;;;;;;;8.57;4.77;;;0.80;99.90;;;;;;5002105;28;20053;-80
2021/12/23 02:46:43;;;;;;;6.50;5.07;;;0.80;99.90;;;;;;5001829;28;20045;-81
2021/12/23 02:49:08;;;;;;;6.17;5.77;;;0.80;99.90;;;;;;5007235;28;20076;-80
2021/12/23 02:51:35;;;;;;;6.67;4.53;;;0.80;99.90;;;;;;5007731;28;20557;-81
2021/12/23 02:54:01;;;;;;;5.67;5.27;;;0.80;99.90;;;;;;5008239;28;20081;-81
2021/12/23 02:56:27;;;;;;;5.53;4.10;;;0.80;99.90;;;;;;5008131;28;20057;-81
2021/12/23 02:58:52;;;;;;;10.60;4.70;;;0.80;99.90;;;;;;5008068;28;20538;-81
2021/12/23 03:01:19;;;;;;;5.63;5.17;;;0.80;99.90;;;;;;5008245;28;20038;-81
2021/12/23 03:03:45;;;;;;;5.27;4.77;;;0.80;99.90;;;;;;4990343;28;20046;-81
2021/12/23 03:06:11;;;;;;;5.57;5.17;;;0.80;99.90;;;;;;5006989;28;20049;-81
2021/12/23 03:08:47;;;;;;;5.80;5.27;;;0.70;99.90;;;;;;5008220;28;20128;-81
2021/12/23 03:11:17;;;;;;;14.50;5.77;;;0.70;99.90;;;;;;4990064;28;20124;-81
2021/12/23 03:13:43;;;;;;;6.67;5.53;;;0.70;99.90;;;;;;5008358;28;20109;-81
2021/12/23 03:16:12;;;;;;;6.97;5.83;;;0.70;99.90;;;;;;5007792;28;20042;-81
2021/12/23 03:18:37;;;;;;;3.33;3.13;;;0.70;99.90;;;;;;5007657;28;20558;-81
2021/12/23 03:21:03;;;;;;;5.77;5.20;;;0.70;99.90;;;;;;5007356;28;20093;-79
2021/12/23 03:23:29;;;;;;;4.93;4.43;;;0.70;99.90;;;;;;4990216;28;20052;-81
2021/12/23 03:25:55;;;;;;;7.83;5.87;;;0.70;99.90;;;;;;4990040;28;20677;-81
2021/12/23 03:28:21;;;;;;;7.33;6.63;;;0.70;99.90;;;;;;5007834;28;20037;-79
2021/12/23 03:30:47;;;;;;;8.43;3.87;;;0.70;99.90;;;;;;4989163;28;20046;-81
2021/12/23 03:33:12;;;;;;;8.20;6.50;;;0.70;99.90;;;;;;4970624;28;20050;-80
2021/12/23 03:35:39;;;;;;;7.13;5.30;;;0.70;99.90;;;;;;4988149;28;20042;-81
2021/12/23 03:38:06;;;;;;;5.80;5.30;;;0.80;99.90;;;;;;4969782;28;20078;-80
2021/12/23 03:40:32;;;;;;;9.93;6.40;;;0.80;99.90;;;;;;4988216;28;20412;-81
2021/12/23 03:42:57;;;;;;;7.83;6.33;;;0.70;99.90;;;;;;4987379;28;20046;-81
2021/12/23 03:45:23;;;;;;;5.27;4.77;;;0.80;99.90;;;;;;4970516;28;20050;-81
2021/12/23 03:47:50;;;;;;;4.77;4.37;;;0.80;99.90;;;;;;4970633;28;20130;-81
2021/12/23 03:50:21;;;;;;;6.17;5.57;;;0.80;99.90;;;;;;4970729;28;20101;-81
2021/12/23 03:52:47;;;;;;;6.87;4.40;;;0.80;99.90;;;;;;4969993;28;20042;-80
2021/12/23 03:55:14;;;;;;;6.30;5.70;;;0.80;99.90;;;;;;4987885;28;20049;-80
2021/12/23 03:57:40;;;;;;;6.63;4.70;;;0.80;99.90;;;;;;4987924;28;20041;-81
2021/12/23 04:00:09;;;;;;;8.37;6.10;;;0.80;99.90;;;;;;4984116;28;20042;-80
2021/12/23 04:02:35;;;;;;;14.13;5.43;;;0.80;99.90;;;;;;4984992;28;20042;-81
2021/12/23 04:05:00;;;;;;;5.43;4.97;;;0.80;99.90;;;;;;4984605;28;20042;-81
2021/12/23 04:07:26;;;;;;;18.17;4.00;;;0.80;99.90;;;;;;4966478;28;20078;-81
2021/12/23 04:09:51;;;;;;;6.93;6.37;;;0.90;99.90;;;;;;4984535;28;20097;-82
2021/12/23 04:12:17;;;;;;;9.23;5.37;;;0.90;99.90;;;;;;4984703;28;20093;-81
2021/12/23 04:14:42;;;;;;;6.33;5.20;;;0.90;99.90;;;;;;4984893;28;20481;-81
2021/12/23 04:17:08;;;;;;;9.90;7.27;;;0.90;99.90;;;;;;4983792;28;20050;-81
2021/12/23 04:19:33;;;;;;;11.77;6.10;;;1.00;99.90;;;;;;4967360;28;20050;-81
2021/12/23 04:22:00;;;;;;;10.03;6.07;;;1.00;99.90;;;;;;4983529;28;20425;-81
2021/12/23 04:24:27;;;;;;;10.67;7.40;;;1.00;99.90;;;;;;4984547;28;20045;-81
2021/12/23 04:26:52;;;;;;;7.00;5.27;;;1.00;99.90;;;;;;4984065;28;20034;-80
2021/12/23 04:29:19;;;;;;;5.47;4.97;;;1.00;99.90;;;;;;4991017;28;20729;-81
2021/12/23 04:31:44;;;;;;;7.57;6.60;;;1.00;99.90;;;;;;5004204;28;20048;-81
2021/12/23 04:34:10;;;;;;;5.83;4.87;;;1.00;99.90;;;;;;5003923;28;20258;-81
2021/12/23 04:36:36;;;;;;;6.27;5.70;;;1.00;99.90;;;;;;5002969;28;20077;-81
2021/12/23 04:39:03;;;;;;;5.67;5.17;;;1.10;99.90;;;;;;5004055;28;20077;-81
2021/12/23 04:41:31;;;;;;;7.03;5.97;;;1.10;99.90;;;;;;5003523;28;20038;-81
2021/12/23 04:43:56;;;;;;;5.43;5.03;;;1.00;99.90;;;;;;5003746;28;20041;-81
2021/12/23 04:46:22;;;;;;;8.47;5.50;;;1.10;99.90;;;;;;5004021;28;20128;-81
2021/12/23 04:48:48;;;;;;;13.10;7.07;;;1.00;99.90;;;;;;5004156;28;20508;-81
2021/12/23 04:51:15;;;;;;;12.10;5.33;;;1.00;99.90;;;;;;5002498;28;20048;-81
2021/12/23 04:53:40;;;;;;;6.00;5.20;;;1.10;99.90;;;;;;4986072;28;20371;-81
2021/12/23 04:56:06;;;;;;;5.57;5.07;;;1.00;99.90;;;;;;5003460;28;20481;-77
2021/12/23 04:58:32;;;;;;;5.57;5.07;;;1.00;99.90;;;;;;5003657;28;20143;-81
2021/12/23 05:00:58;;;;;;;7.13;6.40;;;1.00;99.90;;;;;;5003790;28;20113;-81
2021/12/23 05:03:24;;;;;;;6.17;4.43;;;1.00;99.90;;;;;;4985729;28;20038;-81
2021/12/23 05:05:51;;;;;;;17.13;7.17;;;1.00;99.90;;;;;;5002830;28;20050;-81
2021/12/23 05:08:17;;;;;;;7.40;6.77;;;1.00;99.90;;;;;;4986527;28;20046;-81
2021/12/23 05:10:43;;;;;;;6.40;5.77;;;1.00;99.90;;;;;;5002869;28;20061;-81
2021/12/23 05:13:09;;;;;;;5.17;4.77;;;1.10;99.90;;;;;;5002580;28;20543;-81
2021/12/23 05:15:35;;;;;;;29.70;7.07;;;1.10;99.90;;;;;;5003498;28;20041;-81
2021/12/23 05:18:00;;;;;;;7.43;5.50;;;1.00;99.90;;;;;;4985377;28;20085;-81
2021/12/23 05:20:27;;;;;;;5.13;4.73;;;1.10;99.90;;;;;;5003232;28;20061;-82
2021/12/23 05:22:53;;;;;;;7.77;6.17;;;1.10;99.90;;;;;;4984362;28;20053;-82
2021/12/23 05:25:19;;;;;;;14.83;5.93;;;1.00;99.90;;;;;;5003298;28;20048;-81
2021/12/23 05:27:46;;;;;;;5.90;5.50;;;1.10;99.90;;;;;;4985430;28;20125;-81
2021/12/23 05:30:16;;;;;;;5.93;5.53;;;1.10;99.90;;;;;;4971199;28;20053;-81
2021/12/23 05:32:42;;;;;;;10.60;7.57;;;1.10;99.90;;;;;;4983284;28;20057;-81
2021/12/23 05:35:10;;;;;;;5.87;5.40;;;1.10;99.90;;;;;;4965858;28;20795;-81
2021/12/23 05:37:36;;;;;;;8.67;7.57;;;1.10;99.90;;;;;;4982424;28;20113;-81
2021/12/23 05:40:06;;;;;;;8.37;7.50;;;1.10;99.90;;;;;;4983670;28;20134;-81
2021/12/23 05:42:32;;;;;;;6.07;5.53;;;1.20;99.90;;;;;;4982592;28;20120;-82
2021/12/23 05:44:57;;;;;;;7.53;6.50;;;1.10;99.90;;;;;;4965568;28;20042;-81
2021/12/23 05:47:23;;;;;;;9.50;8.57;;;1.20;99.90;;;;;;4965700;28;20057;-82
2021/12/23 05:49:48;;;;;;;10.10;8.23;;;1.20;99.90;;;;;;4983781;28;20038;-81
2021/12/23 05:52:14;;;;;;;12.83;6.67;;;1.10;99.90;;;;;;4982033;28;20058;-81
2021/12/23 05:54:40;;;;;;;12.70;7.10;;;1.10;99.90;;;;;;4965599;28;20739;-81
2021/12/23 05:57:06;;;;;;;9.93;7.07;;;1.10;99.90;;;;;;4982933;28;20042;-81
2021/12/23 05:59:33;;;;;;;9.47;5.20;;;1.10;99.90;;;;;;4982948;28;20054;-82
2021/12/23 06:02:05;;;;;;;3.87;3.57;;;1.10;99.90;;;;;;4982699;28;20049;-82
2021/12/23 06:04:31;;;;;;;7.75;5.22;;;1.10;99.90;;;;;;4982994;28;20046;-82
2021/12/23 06:06:57;;;;;;;8.23;6.47;;;1.10;99.90;;;;;;4981684;28;20053;-81
2021/12/23 06:09:23;;;;;;;7.20;5.77;;;1.10;99.90;;;;;;4982944;28;20058;-82
2021/12/23 06:11:48;;;;;;;7.77;4.73;;;1.10;99.90;;;;;;4965634;28;20404;-81
2021/12/23 06:14:16;;;;;;;7.00;6.30;;;1.10;99.90;;;;;;4982584;28;20552;-81
2021/12/23 06:16:41;;;;;;;10.73;7.70;;;1.10;99.90;;;;;;4982816;28;20050;-81
2021/12/23 06:19:07;;;;;;;5.17;4.67;;;1.10;99.90;;;;;;4982632;28;20511;-81
2021/12/23 06:21:33;;;;;;;7.83;4.67;;;1.10;99.90;;;;;;4981526;28;20544;-81
2021/12/23 06:23:59;;;;;;;9.00;8.23;;;1.10;99.90;;;;;;4981614;28;20452;-82
2021/12/23 06:26:25;;;;;;;7.83;7.23;;;1.10;99.90;;;;;;4982724;28;20038;-82
2021/12/23 06:28:50;;;;;;;9.20;5.13;;;1.10;99.90;;;;;;4967673;28;20228;-78
2021/12/23 06:31:16;;;;;;;5.87;5.20;;;1.10;99.90;;;;;;5002269;28;20619;-81
2021/12/23 06:33:42;;;;;;;7.30;6.53;;;1.10;99.90;;;;;;5002099;28;20116;-82
2021/12/23 06:36:08;;;;;;;8.43;6.80;;;1.20;99.90;;;;;;4983280;28;20112;-81
2021/12/23 06:38:35;;;;;;;8.17;7.40;;;1.20;99.90;;;;;;5002242;28;20041;-81
2021/12/23 06:41:01;;;;;;;9.43;5.90;;;1.20;99.90;;;;;;4984573;28;20089;-81
2021/12/23 06:43:27;;;;;;;8.03;7.27;;;1.20;99.90;;;;;;5002095;28;20042;-81
2021/12/23 06:45:52;;;;;;;7.97;6.27;;;1.20;99.90;;;;;;4984148;28;20100;-83
2021/12/23 06:48:18;;;;;;;6.93;5.53;;;1.20;99.90;;;;;;5002009;28;20037;-82
2021/12/23 06:50:45;;;;;;;8.57;6.33;;;1.20;99.90;;;;;;5001425;28;20096;-81
2021/12/23 06:53:13;;;;;;;11.67;8.50;;;1.20;99.90;;;;;;5001524;28;20508;-81
2021/12/23 06:55:40;;;;;;;10.37;6.83;;;1.20;99.90;;;;;;5002029;28;20092;-81
2021/12/23 06:58:06;;;;;;;8.97;7.47;;;1.20;99.90;;;;;;5001667;28;20061;-82
2021/12/23 07:00:31;;;;;;;8.87;6.53;;;1.20;99.90;;;;;;5001674;28;20405;-82
2021/12/23 07:02:57;;;;;;;11.80;6.67;;;1.20;99.90;;;;;;5001500;28;20050;-82
2021/12/23 07:05:23;;;;;;;7.37;4.77;;;1.20;99.90;;;;;;5001372;28;20094;-82
2021/12/23 07:10:34;;;;;;;9.53;7.70;;;1.20;99.90;;;;;;4983389;28;20054;-82
2021/12/23 07:13:00;;;;;;;11.23;8.93;;;1.20;99.90;;;;;;5001284;28;20038;-81
2021/12/23 07:15:26;;;;;;;14.00;7.13;;;1.20;99.90;;;;;;5001457;28;20049;-81
2021/12/23 07:17:54;;;;;;;11.73;8.43;;;1.20;99.90;;;;;;5000875;28;20084;-81
2021/12/23 07:20:21;;;;;;;9.73;6.17;;;1.30;99.90;;;;;;5001893;28;20495;-81
2021/12/23 07:22:47;;;;;;;7.83;7.27;;;1.20;99.90;;;;;;4983113;28;20050;-82
2021/12/23 07:25:13;;;;;;;13.43;6.83;;;1.20;99.90;;;;;;4983579;28;20104;-81
2021/12/23 07:27:40;;;;;;;12.87;7.53;;;1.20;99.90;;;;;;5001402;28;20069;-81
2021/12/23 07:30:07;;;;;;;11.50;10.10;;;1.20;99.90;;;;;;4969692;28;20053;-82
2021/12/23 07:32:33;;;;;;;10.10;8.57;;;1.20;99.90;;;;;;4977806;28;20057;-86
2021/12/23 07:34:58;;;;;;;4.20;3.80;;;1.20;99.90;;;;;;4983937;28;20043;-84
2021/12/23 07:37:24;;;;;;;7.80;7.10;;;1.20;99.90;;;;;;4965274;28;20053;-83
2021/12/23 07:39:54;;;;;;;8.53;7.83;;;1.30;99.90;;;;;;4969969;28;20513;-91
2021/12/23 07:42:21;;;;;;;8.10;6.93;;;1.30;99.90;;;;;;4954334;28;20401;-89
2021/12/23 07:44:54;;;;;;;8.03;7.17;;;1.30;99.90;;;;;;4951828;28;20042;-90
2021/12/23 07:47:20;;;;;;;16.33;9.43;;;1.30;99.90;;;;;;4982650;28;20093;-90
2021/12/23 07:49:45;;;;;;;8.07;7.33;;;1.30;99.90;;;;;;4957659;28;20078;-91
2021/12/23 07:52:20;;;;;;;11.33;8.73;;;1.30;99.90;;;;;;4965236;28;20373;-92
2021/12/23 07:54:52;;;;;;;9.40;8.53;;;1.40;99.90;;;;;;4946787;28;20043;-93
2021/12/23 07:57:21;;;;;;;16.95;7.93;;;1.40;99.90;;;;;;4951946;28;20497;-87
2021/12/23 07:59:46;;;;;;;12.17;7.07;;;1.40;99.90;;;;;;4985685;28;20386;-88
2021/12/23 08:02:12;;;;;;;11.23;10.20;;;1.40;99.90;;;;;;4967471;28;20045;-87
2021/12/23 08:04:38;;;;;;;14.13;9.57;;;1.30;99.90;;;;;;4966480;28;20053;-85
2021/12/23 08:07:03;;;;;;;18.37;9.10;;;1.40;99.90;;;;;;4980531;28;20050;-87
2021/12/23 08:09:30;;;;;;;13.57;9.83;;;1.40;99.90;;;;;;4985933;28;20109;-81
2021/12/23 08:11:56;;;;;;;15.77;9.87;;;1.40;99.90;;;;;;4984530;28;20046;-82
2021/12/23 08:14:22;;;;;;;10.77;9.77;;;1.40;99.90;;;;;;4987605;28;20704;-80
2021/12/23 08:16:48;;;;;;;17.03;11.10;;;1.40;99.90;;;;;;4992177;28;20042;-80
2021/12/23 08:19:13;;;;;;;16.33;14.30;;;1.40;99.90;;;;;;4968700;28;20053;-87
2021/12/23 08:21:39;;;;;;;10.17;9.27;;;1.40;99.90;;;;;;4974788;28;20108;-96
2021/12/23 08:24:05;;;;;;;13.47;12.23;;;1.50;99.90;;;;;;4967633;28;20038;-87
2021/12/23 08:26:39;;;;;;;14.27;11.43;;;1.50;99.90;;;;;;4957411;28;21382;-81
2021/12/23 08:29:05;;;;;;;16.13;13.93;;;1.50;99.90;;;;;;4972605;28;20100;-79
2021/12/23 08:31:30;;;;;;;13.63;12.03;;;1.50;99.90;;;;;;4983390;28;20081;-80
2021/12/23 08:33:56;;;;;;;25.33;14.03;;;1.50;99.90;;;;;;4966463;28;20054;-80
2021/12/23 08:36:21;;;;;;;19.80;14.63;;;1.50;99.90;;;;;;4951449;28;20165;-80
2021/12/23 08:38:47;;;;;;;23.00;17.03;;;1.50;99.90;;;;;;4960604;28;20046;-80
2021/12/23 08:41:12;;;;;;;18.80;14.37;;;1.50;99.90;;;;;;4975258;28;20049;-81
2021/12/23 08:43:38;;;;;;;28.80;15.87;;;1.50;99.90;;;;;;4980497;28;20048;-81
2021/12/23 08:46:04;;;;;;;20.93;17.33;;;1.50;99.90;;;;;;4956583;28;20405;-81
2021/12/23 08:48:29;;;;;;;13.40;11.73;;;1.50;99.90;;;;;;4983914;28;20042;-83
2021/12/23 08:50:55;;;;;;;21.43;13.27;;;1.60;99.90;;;;;;4973674;28;20046;-81
2021/12/23 08:53:21;;;;;;;20.40;11.97;;;1.60;99.90;;;;;;4971397;28;20565;-78
2021/12/23 08:55:47;;;;;;;22.60;14.50;;;1.60;99.90;;;;;;4958182;28;20043;-79
2021/12/23 08:58:12;;;;;;;22.27;15.33;;;1.60;99.90;;;;;;4959485;28;20057;-92
2021/12/23 09:00:39;;;;;;;18.23;16.33;;;1.60;99.90;;;;;;4976956;28;20035;-79
2021/12/23 09:03:07;;;;;;;23.17;16.37;;;1.60;99.90;;;;;;4978447;28;20579;-82
2021/12/23 09:05:34;;;;;;;16.03;13.77;;;1.60;99.90;;;;;;4980742;28;20527;-80
2021/12/23 09:07:59;;;;;;;21.20;15.83;;;1.60;99.90;;;;;;4967652;28;20339;-83
2021/12/23 09:10:25;;;;;;;29.23;17.93;;;1.60;99.90;;;;;;4965944;28;20066;-82
2021/12/23 09:12:51;;;;;;;19.27;15.80;;;1.60;99.90;;;;;;4966243;28;20050;-76
2021/12/23 09:15:18;;;;;;;14.27;12.90;;;1.60;99.90;;;;;;4982311;28;20058;-79
2021/12/23 09:17:45;;;;;;;21.77;15.60;;;1.60;99.90;;;;;;4964093;28;20287;-77
2021/12/23 09:20:12;;;;;;;20.67;13.17;;;1.60;99.90;;;;;;4974655;28;20270;-76
2021/12/23 09:22:39;;;;;;;15.10;13.73;;;1.70;99.90;;;;;;4983669;28;20039;-79
2021/12/23 09:25:11;;;;;;;23.63;15.53;;;1.60;99.90;;;;;;4981895;28;20052;-75
2021/12/23 09:27:52;;;;;;;28.75;16.35;;;1.60;99.90;;;;;;4986994;28;20042;-75
2021/12/23 09:33:02;;;;;;;21.10;15.10;;;1.60;99.90;;;;;;4972687;28;20563;-76
2021/12/23 09:35:30;;;;;;;20.53;15.03;;;1.70;99.90;;;;;;4972227;28;20042;-80
2021/12/23 09:37:56;;;;;;;17.70;13.50;;;1.60;99.90;;;;;;4972154;28;20046;-79
2021/12/23 09:40:23;;;;;;;15.87;13.03;;;1.60;99.90;;;;;;4951242;28;20121;-79
2021/12/23 09:42:50;;;;;;;17.67;13.33;;;1.60;99.90;;;;;;4989455;28;20184;-78
2021/12/23 09:45:18;;;;;;;18.27;16.13;;;1.60;99.90;;;;;;4967543;28;20031;-82
2021/12/23 09:47:47;;;;;;;28.60;15.20;;;1.60;99.90;;;;;;4972747;28;20474;-82
2021/12/23 09:50:17;;;;;;;23.47;15.53;;;1.60;99.90;;;;;;4987475;28;20261;-82
2021/12/23 09:52:47;;;;;;;16.37;14.70;;;1.70;99.90;;;;;;4989497;28;20496;-83
2021/12/23 09:55:15;;;;;;;16.63;12.90;;;1.60;99.90;;;;;;4964668;28;20394;-85
2021/12/23 09:57:44;;;;;;;27.93;16.20;;;1.70;99.90;;;;;;4971175;28;20049;-83
2021/12/23 10:00:11;;;;;;;17.27;15.50;;;1.60;99.90;;;;;;4970191;28;20053;-80
2021/12/23 10:02:45;;;;;;;25.07;18.07;;;1.70;99.90;;;;;;4986583;28;20106;-80
2021/12/23 10:05:16;;;;;;;18.33;14.67;;;1.70;99.90;;;;;;4968628;28;20047;-81
2021/12/23 10:07:45;;;;;;;15.80;11.17;;;1.60;99.90;;;;;;4975546;28;20077;-86
2021/12/23 10:10:19;;;;;;;19.63;13.60;;;1.70;99.90;;;;;;4989344;28;20637;-79
2021/12/23 10:32:15;;;;;;;20.97;18.20;;;1.70;99.90;;;;;;4974254;28;20053;-84
2021/12/23 10:37:18;;;;;;;20.70;14.90;;;1.70;99.90;;;;;;4963208;28;20394;-90
2021/12/23 10:39:51;;;;;;;21.17;18.97;;;1.70;99.90;;;;;;4964008;28;20034;-91
2021/12/23 10:42:24;;;;;;;21.60;14.33;;;1.70;99.90;;;;;;4949715;28;20528;-88
2021/12/23 10:45:01;;;;;;;21.43;16.73;;;1.70;99.90;;;;;;4961402;28;20217;-89
2021/12/23 10:47:38;;;;;;;16.60;12.37;;;1.70;99.90;;;;;;4958862;28;20042;-91
2021/12/23 10:50:44;;;;;;;23.90;15.60;;;1.70;99.90;;;;;;4964979;28;20587;-84
2021/12/23 10:53:39;;;;;;;24.20;15.57;;;1.70;99.90;;;;;;4963636;28;20503;-86
2021/12/23 10:59:13;;;;;;;38.23;20.30;;;1.70;99.90;;;;;;4970492;28;20034;-81
2021/12/23 11:02:18;;;;;;;20.87;13.33;;;1.70;99.90;;;;;;4966663;28;20057;-79
2021/12/23 11:04:59;;;;;;;17.43;10.97;;;1.70;99.90;;;;;;4988820;28;20137;-81
2021/12/23 11:07:55;;;;;;;27.73;16.17;;;1.70;99.90;;;;;;4985419;28;20069;-76
2021/12/23 11:28:00;;;;;;;21.10;15.10;;;1.80;99.90;;;;;;4974655;28;20049;-78
2021/12/23 11:31:17;;;;;;;17.63;14.80;;;1.80;99.90;;;;;;4993402;28;20346;-88
2021/12/23 11:38:40;;;;;;;17.90;13.57;;;1.90;99.90;;;;;;4967930;28;20149;-84
2021/12/23 11:43:56;;;;;;;17.77;15.97;;;1.90;99.90;;;;;;4969871;28;20078;-82
2021/12/23 11:46:26;;;;;;;22.63;14.80;;;1.90;99.90;;;;;;4968768;28;20046;-79
2021/12/23 11:48:55;;;;;;;20.20;15.60;;;1.90;99.90;;;;;;4981722;28;20046;-86
2021/12/23 11:54:11;;;;;;;24.30;16.93;;;2.00;99.90;;;;;;4954150;28;20047;-87
2021/12/23 11:56:43;;;;;;;22.57;16.80;;;2.00;99.90;;;;;;4964182;28;20169;-79
2021/12/23 11:59:12;;;;;;;18.98;16.95;;;2.00;99.90;;;;;;4985003;28;20491;-81
2021/12/23 12:01:47;;;;;;;20.23;18.27;;;2.00;99.90;;;;;;4992215;28;20049;-78
2021/12/23 12:04:25;;;;;;;16.57;14.90;;;2.00;99.90;;;;;;4985909;28;20050;-80
2021/12/23 12:06:52;;;;;;;21.10;16.07;;;2.10;99.90;;;;;;4987888;28;20030;-83
2021/12/23 12:09:22;;;;;;;29.50;18.00;;;2.10;99.90;;;;;;4993456;28;20390;-80
2021/12/23 12:12:08;;;;;;;19.93;17.83;;;2.10;99.90;;;;;;4969708;28;20464;-78
2021/12/23 12:14:36;;;;;;;24.87;15.70;;;2.10;99.90;;;;;;4972830;28;20050;-80
2021/12/23 12:17:27;;;;;;;16.97;11.50;;;2.10;99.90;;;;;;4994620;28;20034;-79
2021/12/23 12:20:07;;;;;;;20.57;16.00;;;2.10;99.90;;;;;;4968391;28;20050;-78
2021/12/23 12:23:02;;;;;;;17.53;13.60;;;2.20;99.90;;;;;;4983583;28;20050;-79
2021/12/23 12:25:28;;;;;;;26.10;15.20;;;2.20;99.90;;;;;;4966327;28;20042;-79
2021/12/23 12:27:57;;;;;;;18.53;13.87;;;2.20;99.90;;;;;;4963815;28;20401;-79
2021/12/23 12:30:40;;;;;;;21.37;16.43;;;2.20;99.90;;;;;;4964116;28;20045;-79
2021/12/23 12:33:11;;;;;;;20.47;16.70;;;2.20;99.90;;;;;;4983181;28;20042;-79
2021/12/23 12:35:37;;;;;;;27.73;15.60;;;2.20;99.90;;;;;;4964604;28;20074;-79
2021/12/23 12:38:21;;;;;;;20.83;16.40;;;2.20;99.90;;;;;;4983178;28;20074;-79
2021/12/23 12:40:58;;;;;;;17.37;14.63;;;2.20;99.90;;;;;;4964599;28;20035;-79
2021/12/23 12:43:45;;;;;;;24.47;14.50;;;2.30;99.90;;;;;;4964157;28;20069;-79
2021/12/23 12:46:46;;;;;;;27.73;14.80;;;2.30;99.90;;;;;;4983781;28;20137;-80
2021/12/23 12:49:27;;;;;;;27.10;16.13;;;2.30;99.90;;;;;;4962181;28;20069;-80
2021/12/23 12:52:05;;;;;;;19.87;15.87;;;2.40;99.90;;;;;;4982985;28;20124;-78
2021/12/23 12:54:32;;;;;;;20.30;15.60;;;2.30;99.90;;;;;;4984269;28;20078;-79
2021/12/23 12:57:04;;;;;;;26.90;18.30;;;2.30;99.90;;;;;;4966772;28;20076;-79
2021/12/23 12:59:35;;;;;;;19.90;15.63;;;2.40;99.90;;;;;;4982399;28;20038;-79
2021/12/23 13:02:00;;;;;;;18.27;16.50;;;2.40;99.90;;;;;;4983689;28;20100;-80
2021/12/23 13:04:33;;;;;;;29.23;17.33;;;2.40;99.90;;;;;;4983539;28;20413;-79
2021/12/23 13:07:25;;;;;;;21.13;18.03;;;2.40;99.90;;;;;;4983547;28;20054;-81
2021/12/23 13:10:04;;;;;;;24.50;16.47;;;2.40;99.90;;;;;;4962404;28;20065;-75
2021/12/23 13:12:43;;;;;;;21.20;16.53;;;2.40;99.90;;;;;;4964054;28;20528;-77
2021/12/23 13:15:22;;;;;;;27.43;15.03;;;2.40;99.90;;;;;;4970801;28;20459;-78
2021/12/23 13:17:58;;;;;;;31.70;15.33;;;2.40;99.90;;;;;;4972802;28;20050;-79
2021/12/23 13:20:35;;;;;;;21.90;15.27;;;2.40;99.90;;;;;;4970926;28;20046;-79
2021/12/23 13:23:08;;;;;;;25.63;16.23;;;2.50;99.90;;;;;;4967134;28;20302;-79
2021/12/23 13:25:43;;;;;;;24.67;12.80;;;2.40;99.90;;;;;;4965579;28;20180;-79
2021/12/23 13:28:08;;;;;;;20.43;15.60;;;2.40;99.90;;;;;;4970544;28;20117;-80
2021/12/23 13:30:38;;;;;;;18.83;16.87;;;2.50;99.90;;;;;;4972297;28;20737;-80
2021/12/23 13:33:05;;;;;;;20.97;16.70;;;2.50;99.90;;;;;;4969086;28;20035;-79
2021/12/23 13:35:31;;;;;;;16.87;14.70;;;2.50;99.90;;;;;;4971212;28;20050;-81
2021/12/23 13:37:57;;;;;;;28.07;18.13;;;2.50;99.90;;;;;;4971272;28;20049;-79
2021/12/23 13:40:33;;;;;;;33.90;18.30;;;2.50;99.90;;;;;;4966089;28;20051;-79
2021/12/23 13:42:58;;;;;;;29.00;15.20;;;2.50;99.90;;;;;;4962114;28;20454;-79
2021/12/23 13:45:25;;;;;;;14.77;12.13;;;2.50;99.90;;;;;;4963789;28;20528;-79
2021/12/23 13:47:53;;;;;;;20.73;13.47;;;2.60;99.90;;;;;;4962180;28;20544;-78
2021/12/23 13:50:20;;;;;;;19.23;16.73;;;2.60;99.90;;;;;;4963328;28;20042;-80
2021/12/23 13:52:49;;;;;;;23.53;15.17;;;2.60;99.90;;;;;;4962581;28;20097;-80
2021/12/23 13:55:24;;;;;;;25.50;15.20;;;2.60;99.90;;;;;;4962947;28;20051;-79
2021/12/23 13:57:53;;;;;;;21.13;18.60;;;2.60;99.90;;;;;;4962843;28;20050;-79